Time;durP1;ratioP1;P1;durP2;ratioP2;P2;SDS_P1;SDS_P2;PMS_P1;PMS_P2;Temp;Humidity;BMP_temperature;BMP_pressure;BME280_temperature;BME280_humidity;BME280_pressure;Samples;Min_cycle;Max_cycle;Signal;HPM_P1;HPM_P2
2021/06/25 00:00:09;;;;;;;4.13;1.00;;;20.20;69.20;;;;;;5028850;28;20056;-85
2021/06/25 00:02:35;;;;;;;4.25;1.83;;;20.20;69.30;;;;;;5055338;28;20017;-85
2021/06/25 00:05:02;;;;;;;4.50;1.30;;;20.20;69.10;;;;;;5073196;28;20029;-85
2021/06/25 00:07:28;;;;;;;3.33;0.88;;;20.20;68.90;;;;;;5069113;28;20096;-85
2021/06/25 00:09:54;;;;;;;2.08;0.85;;;20.20;68.80;;;;;;5041296;28;20071;-86
2021/06/25 00:12:19;;;;;;;3.53;0.88;;;20.10;68.80;;;;;;5048291;28;20565;-86
2021/06/25 00:14:45;;;;;;;4.43;1.10;;;20.10;68.70;;;;;;5037113;28;20056;-85
2021/06/25 00:17:11;;;;;;;3.17;0.90;;;20.10;68.70;;;;;;5059106;28;20401;-85
2021/06/25 00:19:37;;;;;;;1.20;0.77;;;20.20;69.00;;;;;;5036607;28;20068;-85
2021/06/25 00:22:03;;;;;;;3.33;1.40;;;20.20;68.70;;;;;;5035633;28;20020;-85
2021/06/25 00:24:29;;;;;;;3.17;1.00;;;20.20;69.30;;;;;;5035910;28;20111;-86
2021/06/25 00:26:54;;;;;;;2.15;1.10;;;20.20;68.90;;;;;;5026457;28;20124;-86
2021/06/25 00:29:21;;;;;;;3.83;1.23;;;20.10;68.90;;;;;;5028186;28;20478;-85
2021/06/25 00:31:47;;;;;;;4.38;1.13;;;20.10;69.00;;;;;;5034557;28;20029;-85
2021/06/25 00:34:13;;;;;;;6.55;1.20;;;20.10;69.20;;;;;;5032251;28;20379;-85
2021/06/25 00:36:39;;;;;;;1.38;1.00;;;20.10;69.10;;;;;;5049022;28;20029;-85
2021/06/25 00:39:05;;;;;;;1.73;0.95;;;20.00;69.50;;;;;;5036263;28;20098;-86
2021/06/25 00:41:31;;;;;;;6.03;1.17;;;20.10;69.50;;;;;;5035465;28;20969;-86
2021/06/25 00:43:57;;;;;;;1.48;1.02;;;20.10;69.50;;;;;;5038940;28;20024;-85
2021/06/25 00:46:23;;;;;;;1.95;0.95;;;20.10;69.70;;;;;;5052176;28;20382;-85
2021/06/25 00:48:49;;;;;;;3.65;1.42;;;20.10;69.70;;;;;;5048169;28;20051;-85
2021/06/25 00:51:16;;;;;;;3.75;1.20;;;20.10;70.50;;;;;;5034247;28;20393;-86
2021/06/25 00:53:42;;;;;;;2.88;1.00;;;20.10;69.90;;;;;;5025310;28;20033;-86
2021/06/25 00:56:12;;;;;;;1.92;0.98;;;20.10;69.80;;;;;;5033723;28;20379;-86
2021/06/25 00:58:39;;;;;;;2.88;1.23;;;20.10;69.80;;;;;;5033606;28;20028;-86
2021/06/25 01:01:05;;;;;;;1.85;1.17;;;20.00;70.00;;;;;;5035278;28;20489;-85
2021/06/25 01:03:31;;;;;;;1.20;1.05;;;20.00;70.40;;;;;;5038218;28;20117;-86
2021/06/25 01:05:57;;;;;;;2.33;1.02;;;20.00;70.40;;;;;;5034776;28;20036;-86
2021/06/25 01:08:26;;;;;;;2.08;1.00;;;19.90;70.30;;;;;;5035335;28;20025;-86
2021/06/25 01:10:54;;;;;;;4.05;1.20;;;20.00;70.30;;;;;;5034956;28;20067;-86
2021/06/25 01:13:21;;;;;;;1.65;1.10;;;19.90;70.20;;;;;;5021220;28;20128;-86
2021/06/25 01:15:47;;;;;;;4.05;1.15;;;19.90;70.60;;;;;;5030454;28;20032;-86
2021/06/25 01:18:12;;;;;;;5.30;1.65;;;19.90;70.50;;;;;;5051962;28;20390;-86
2021/06/25 01:20:38;;;;;;;2.50;1.42;;;19.80;70.30;;;;;;5037446;28;20025;-87
2021/06/25 01:23:05;;;;;;;2.40;1.27;;;19.80;70.50;;;;;;5029054;28;20456;-86
2021/06/25 01:25:33;;;;;;;3.50;1.20;;;19.80;70.50;;;;;;5034711;28;20072;-86
2021/06/25 01:28:04;;;;;;;1.55;1.23;;;19.90;70.50;;;;;;5045324;28;20025;-86
2021/06/25 01:30:33;;;;;;;3.25;1.35;;;19.80;70.40;;;;;;5034054;28;20119;-86
2021/06/25 01:33:00;;;;;;;1.98;1.40;;;19.70;70.60;;;;;;5033834;28;20440;-86
2021/06/25 01:35:27;;;;;;;2.20;1.27;;;19.80;70.80;;;;;;5035823;28;20036;-85
2021/06/25 01:37:52;;;;;;;3.83;1.17;;;19.70;70.60;;;;;;5032362;28;20070;-85
2021/06/25 01:40:19;;;;;;;1.90;0.80;;;19.70;70.60;;;;;;5034906;28;20021;-85
2021/06/25 01:42:47;;;;;;;5.53;1.52;;;19.70;70.70;;;;;;5033640;28;20024;-85
2021/06/25 01:45:21;;;;;;;3.67;1.10;;;19.70;70.80;;;;;;5034161;28;20040;-85
2021/06/25 01:47:49;;;;;;;3.50;1.70;;;19.70;70.80;;;;;;5029163;28;20037;-85
2021/06/25 01:50:18;;;;;;;6.25;2.00;;;19.80;70.60;;;;;;5039611;28;20068;-85
2021/06/25 01:52:46;;;;;;;2.65;1.60;;;19.80;70.40;;;;;;5050319;28;20028;-85
2021/06/25 01:55:13;;;;;;;3.85;1.65;;;19.80;70.30;;;;;;5033399;28;20049;-86
2021/06/25 01:57:39;;;;;;;2.30;1.80;;;19.90;70.20;;;;;;5025376;28;20036;-85
2021/06/25 02:00:06;;;;;;;3.13;1.80;;;19.90;70.20;;;;;;5031908;28;20485;-85
2021/06/25 02:02:33;;;;;;;2.65;2.00;;;19.90;70.30;;;;;;5033182;28;20025;-86
2021/06/25 02:04:59;;;;;;;2.25;1.30;;;19.90;70.40;;;;;;5034086;28;20060;-86
2021/06/25 02:07:25;;;;;;;6.85;1.48;;;19.80;70.30;;;;;;5034311;28;20064;-86
2021/06/25 02:09:51;;;;;;;2.38;1.13;;;19.80;70.30;;;;;;5034475;28;20032;-86
2021/06/25 02:12:17;;;;;;;0.63;0.40;;;19.70;69.90;;;;;;5032944;28;20030;-85
2021/06/25 02:14:46;;;;;;;2.97;1.15;;;19.60;70.00;;;;;;5044060;28;20033;-85
2021/06/25 02:17:11;;;;;;;2.72;0.80;;;19.50;70.20;;;;;;5033147;28;20032;-85
2021/06/25 02:19:37;;;;;;;3.13;1.55;;;19.60;70.20;;;;;;5027517;28;20486;-85
2021/06/25 02:22:03;;;;;;;3.58;1.15;;;19.50;70.40;;;;;;5028899;28;20075;-85
2021/06/25 02:24:29;;;;;;;1.35;0.80;;;19.50;70.60;;;;;;5034568;28;20040;-85
2021/06/25 02:26:55;;;;;;;4.18;0.55;;;19.50;70.40;;;;;;5028010;28;20029;-85
2021/06/25 02:29:21;;;;;;;0.82;0.55;;;19.50;70.30;;;;;;5037294;28;20079;-85
2021/06/25 02:31:47;;;;;;;0.90;0.60;;;19.50;70.40;;;;;;5033778;28;20025;-85
2021/06/25 02:34:13;;;;;;;3.72;0.82;;;19.40;70.30;;;;;;5033604;28;20021;-86
2021/06/25 02:36:38;;;;;;;5.00;1.45;;;19.40;70.60;;;;;;5035829;28;20043;-85
2021/06/25 02:39:04;;;;;;;6.72;2.40;;;19.50;70.90;;;;;;5033190;28;20028;-86
2021/06/25 02:41:30;;;;;;;5.75;2.65;;;19.50;71.10;;;;;;5033829;28;20111;-85
2021/06/25 02:43:56;;;;;;;5.65;2.15;;;19.50;71.40;;;;;;5034335;28;20067;-85
2021/06/25 02:46:22;;;;;;;4.88;2.95;;;19.50;71.60;;;;;;5030448;28;20026;-86
2021/06/25 02:48:47;;;;;;;5.75;2.70;;;19.60;71.70;;;;;;5027650;28;20078;-85
2021/06/25 02:51:15;;;;;;;4.15;2.20;;;19.60;72.00;;;;;;5029429;28;20091;-85
2021/06/25 02:53:41;;;;;;;3.17;2.00;;;19.60;72.10;;;;;;5032550;28;20024;-85
2021/06/25 02:56:06;;;;;;;2.50;1.95;;;19.60;72.00;;;;;;5035068;28;20048;-85
2021/06/25 02:58:32;;;;;;;3.00;2.00;;;19.60;71.90;;;;;;5033129;28;20033;-85
2021/06/25 03:00:58;;;;;;;3.65;1.73;;;19.60;72.00;;;;;;5052495;28;20020;-85
2021/06/25 03:03:24;;;;;;;3.47;1.42;;;19.70;72.00;;;;;;5033500;28;20025;-85
2021/06/25 03:05:51;;;;;;;3.75;1.35;;;19.60;71.50;;;;;;5042159;28;20025;-85
2021/06/25 03:08:16;;;;;;;2.55;1.40;;;19.60;71.50;;;;;;5034486;28;20032;-85
2021/06/25 03:10:46;;;;;;;4.90;1.60;;;19.60;71.40;;;;;;5040674;28;20067;-85
2021/06/25 03:13:12;;;;;;;5.10;2.47;;;19.70;71.50;;;;;;5032475;28;20051;-84
2021/06/25 03:15:38;;;;;;;3.80;1.88;;;19.70;71.50;;;;;;5033987;28;20025;-85
2021/06/25 03:18:04;;;;;;;2.30;1.30;;;19.70;71.30;;;;;;5033688;28;20029;-84
2021/06/25 03:20:30;;;;;;;2.30;1.30;;;19.70;71.00;;;;;;5033442;28;20454;-84
2021/06/25 03:22:55;;;;;;;1.95;0.93;;;19.70;71.20;;;;;;5031711;28;20029;-85
2021/06/25 03:25:21;;;;;;;2.05;1.20;;;19.70;71.10;;;;;;5035734;28;20898;-84
2021/06/25 03:27:47;;;;;;;2.35;1.05;;;19.60;71.00;;;;;;5035895;28;20060;-84
2021/06/25 03:30:14;;;;;;;2.47;1.20;;;19.50;71.00;;;;;;5035581;28;20033;-84
2021/06/25 03:32:40;;;;;;;3.85;1.23;;;19.50;71.10;;;;;;5023434;28;20119;-84
2021/06/25 03:35:07;;;;;;;3.63;1.05;;;19.60;71.00;;;;;;5040129;28;20025;-84
2021/06/25 03:37:33;;;;;;;2.33;1.13;;;19.60;71.00;;;;;;5028234;28;20029;-84
2021/06/25 03:39:59;;;;;;;2.38;1.00;;;19.60;70.90;;;;;;5031493;28;20417;-84
2021/06/25 03:42:25;;;;;;;2.17;1.27;;;19.50;70.60;;;;;;5036286;28;20188;-84
2021/06/25 03:44:50;;;;;;;2.33;1.50;;;19.40;70.80;;;;;;5036769;28;20390;-84
2021/06/25 03:47:19;;;;;;;2.80;1.63;;;19.40;71.00;;;;;;5035546;28;20028;-84
2021/06/25 03:49:45;;;;;;;3.65;2.15;;;19.30;71.20;;;;;;5036803;28;20029;-85
2021/06/25 03:52:11;;;;;;;2.33;1.60;;;19.30;71.20;;;;;;5036047;28;20029;-84
2021/06/25 03:54:37;;;;;;;4.82;1.75;;;19.30;71.40;;;;;;5033554;28;20425;-84
2021/06/25 03:57:03;;;;;;;4.28;2.33;;;19.20;71.60;;;;;;5036240;28;20040;-85
2021/06/25 03:59:29;;;;;;;4.90;2.20;;;19.20;71.70;;;;;;5027201;28;20444;-85
2021/06/25 04:01:54;;;;;;;3.58;2.80;;;19.30;71.80;;;;;;5035287;28;20163;-85
2021/06/25 04:04:39;;;;;;;5.22;2.47;;;19.30;71.90;;;;;;5062785;28;20028;-84
2021/06/25 04:07:06;;;;;;;7.50;2.35;;;19.30;71.90;;;;;;5035910;28;20501;-84
2021/06/25 04:09:33;;;;;;;4.10;2.60;;;19.30;71.80;;;;;;5035556;28;20021;-85
2021/06/25 04:11:59;;;;;;;6.43;2.40;;;19.30;71.90;;;;;;5048304;28;20044;-85
2021/06/25 04:14:24;;;;;;;4.63;2.33;;;19.40;71.80;;;;;;5040906;28;20037;-84
2021/06/25 04:16:51;;;;;;;4.25;2.40;;;19.40;71.70;;;;;;5046825;28;20393;-83
2021/06/25 04:19:16;;;;;;;6.50;2.60;;;19.30;71.80;;;;;;5036321;28;20035;-84
2021/06/25 04:21:44;;;;;;;7.60;2.50;;;19.40;71.90;;;;;;5035043;28;20021;-86
2021/06/25 04:24:10;;;;;;;7.72;2.28;;;19.40;72.20;;;;;;5035442;28;20021;-85
2021/06/25 04:26:38;;;;;;;8.20;2.35;;;19.40;72.20;;;;;;5031191;28;20429;-85
2021/06/25 04:29:09;;;;;;;2.28;1.98;;;19.40;72.20;;;;;;5052114;28;20095;-85
2021/06/25 04:31:35;;;;;;;3.75;2.22;;;19.40;71.90;;;;;;5041475;28;20021;-85
2021/06/25 04:34:02;;;;;;;6.18;2.50;;;19.40;72.20;;;;;;5034377;28;20025;-85
2021/06/25 04:36:28;;;;;;;2.88;2.33;;;19.30;72.30;;;;;;5049420;28;20486;-85
2021/06/25 04:38:54;;;;;;;4.60;2.50;;;19.40;72.20;;;;;;5023326;28;20029;-85
2021/06/25 04:41:19;;;;;;;3.83;2.25;;;19.40;72.10;;;;;;5032458;28;20048;-86
2021/06/25 04:43:45;;;;;;;3.83;2.20;;;19.40;72.50;;;;;;5031750;28;20048;-86
2021/06/25 04:46:12;;;;;;;3.38;1.92;;;19.40;72.40;;;;;;5037839;28;20025;-85
2021/06/25 04:48:41;;;;;;;7.47;2.00;;;19.50;72.20;;;;;;5046578;28;20025;-85
2021/06/25 04:51:06;;;;;;;8.25;2.03;;;19.50;72.10;;;;;;5038114;28;20033;-86
2021/06/25 04:53:32;;;;;;;5.45;2.58;;;19.50;71.90;;;;;;5042539;28;20025;-84
2021/06/25 04:55:58;;;;;;;4.78;1.95;;;19.50;72.00;;;;;;5041968;28;20040;-85
2021/06/25 04:58:27;;;;;;;3.40;1.33;;;19.40;72.00;;;;;;5032936;28;20047;-85
2021/06/25 05:00:54;;;;;;;2.17;1.27;;;19.40;72.10;;;;;;5034456;28;20029;-85
2021/06/25 05:03:20;;;;;;;3.85;1.15;;;19.30;72.10;;;;;;5035963;28;20025;-85
2021/06/25 05:05:45;;;;;;;3.22;1.85;;;19.30;72.10;;;;;;5033450;28;20024;-85
2021/06/25 05:08:12;;;;;;;3.28;1.30;;;19.30;72.20;;;;;;5035544;28;20374;-85
2021/06/25 05:10:38;;;;;;;3.40;1.10;;;19.30;72.30;;;;;;5031169;28;20056;-85
2021/06/25 05:13:04;;;;;;;1.45;0.80;;;19.30;72.20;;;;;;5027155;28;20036;-85
2021/06/25 05:15:30;;;;;;;2.47;0.70;;;19.30;72.00;;;;;;5037824;28;20048;-84
2021/06/25 05:17:56;;;;;;;2.25;0.90;;;19.40;71.90;;;;;;5036000;28;20075;-85
2021/06/25 05:20:23;;;;;;;1.33;0.90;;;19.40;71.80;;;;;;5033909;28;20029;-84
2021/06/25 05:22:49;;;;;;;1.98;0.65;;;19.40;71.80;;;;;;5024787;28;20021;-85
2021/06/25 05:25:15;;;;;;;3.95;0.77;;;19.40;71.70;;;;;;5035223;28;20033;-85
2021/06/25 05:27:41;;;;;;;5.05;0.80;;;19.40;71.60;;;;;;5031760;28;20033;-84
2021/06/25 05:30:08;;;;;;;6.80;1.00;;;19.40;71.50;;;;;;5027150;28;20555;-83
2021/06/25 05:32:34;;;;;;;4.18;0.93;;;19.50;71.50;;;;;;5035442;28;20028;-84
2021/06/25 05:35:01;;;;;;;2.55;0.85;;;19.50;71.50;;;;;;5034363;28;20056;-84
2021/06/25 05:37:27;;;;;;;3.35;1.00;;;19.50;71.60;;;;;;5043412;28;20025;-84
2021/06/25 05:39:52;;;;;;;3.80;1.00;;;19.60;71.70;;;;;;5034430;28;20098;-84
2021/06/25 05:42:18;;;;;;;3.17;1.42;;;19.60;71.50;;;;;;5033927;28;20064;-85
2021/06/25 05:44:44;;;;;;;3.97;1.20;;;19.60;71.90;;;;;;5029547;28;20032;-85
2021/06/25 05:47:10;;;;;;;2.60;1.40;;;19.60;71.90;;;;;;5032059;28;20588;-85
2021/06/25 05:49:36;;;;;;;2.53;1.25;;;19.70;72.00;;;;;;5028844;28;20125;-84
2021/06/25 05:52:02;;;;;;;2.85;1.60;;;19.70;71.90;;;;;;5035917;28;20035;-84
2021/06/25 05:54:28;;;;;;;2.63;1.42;;;19.70;71.70;;;;;;5034212;28;20567;-84
2021/06/25 05:56:54;;;;;;;3.28;1.90;;;19.70;71.80;;;;;;5032725;28;20033;-84
2021/06/25 05:59:20;;;;;;;4.68;2.13;;;19.70;71.70;;;;;;5032187;28;20025;-84
2021/06/25 06:01:46;;;;;;;3.33;2.05;;;19.70;71.50;;;;;;5051178;28;20021;-85
2021/06/25 06:04:12;;;;;;;5.13;2.00;;;19.70;71.40;;;;;;5033696;28;20152;-85
2021/06/25 06:06:38;;;;;;;3.63;1.80;;;19.80;71.50;;;;;;5035842;28;20021;-85
2021/06/25 06:09:04;;;;;;;2.53;1.48;;;19.80;71.40;;;;;;5033876;28;20497;-85
2021/06/25 06:11:30;;;;;;;3.08;1.70;;;19.80;71.30;;;;;;5033528;28;20506;-84
2021/06/25 06:13:56;;;;;;;3.42;1.58;;;19.80;71.20;;;;;;5030187;28;20021;-85
2021/06/25 06:16:22;;;;;;;2.17;1.20;;;19.70;71.20;;;;;;5052778;28;20031;-85
2021/06/25 06:18:49;;;;;;;5.18;1.42;;;19.70;71.30;;;;;;5024571;28;20597;-85
2021/06/25 06:21:17;;;;;;;2.33;1.75;;;19.70;71.40;;;;;;5028014;28;20079;-85
2021/06/25 06:34:32;;;;;;;5.95;1.70;;;19.80;70.80;;;;;;5056991;28;20037;-85
2021/06/25 06:36:58;;;;;;;4.30;2.20;;;19.90;71.00;;;;;;5028891;28;20036;-84
2021/06/25 06:39:24;;;;;;;3.22;1.58;;;20.00;71.20;;;;;;5031518;28;20029;-84
2021/06/25 06:41:50;;;;;;;4.70;2.20;;;20.10;71.00;;;;;;5050239;28;20033;-84
2021/06/25 06:44:16;;;;;;;4.25;2.50;;;20.10;70.50;;;;;;5030554;28;20029;-85
2021/06/25 06:46:42;;;;;;;7.35;2.03;;;20.00;70.40;;;;;;5032360;28;20025;-84
2021/06/25 06:49:07;;;;;;;2.53;2.33;;;20.00;70.60;;;;;;5050612;28;20029;-84
2021/06/25 06:51:34;;;;;;;6.68;2.85;;;20.00;70.40;;;;;;5033465;28;20021;-84
2021/06/25 06:54:03;;;;;;;5.45;2.50;;;20.00;70.30;;;;;;5036485;28;20029;-84
2021/06/25 06:56:30;;;;;;;3.92;2.50;;;20.10;70.80;;;;;;5050993;28;20048;-84
2021/06/25 06:58:59;;;;;;;4.72;2.22;;;20.10;70.60;;;;;;5035073;28;20777;-85
2021/06/25 07:01:27;;;;;;;5.00;2.22;;;20.20;70.70;;;;;;5036965;28;20107;-85
2021/06/25 07:03:52;;;;;;;2.97;1.75;;;20.20;70.80;;;;;;5037249;28;20028;-85
2021/06/25 07:06:18;;;;;;;3.38;2.25;;;20.30;70.60;;;;;;5037530;28;20473;-85
2021/06/25 07:08:44;;;;;;;5.47;2.60;;;20.50;70.50;;;;;;5039887;28;20405;-85
2021/06/25 07:11:10;;;;;;;3.50;2.40;;;20.60;69.60;;;;;;5036099;28;20047;-85
2021/06/25 07:13:36;;;;;;;4.72;2.63;;;20.70;69.50;;;;;;5033524;28;20468;-85
2021/06/25 07:16:02;;;;;;;9.70;2.35;;;20.70;69.50;;;;;;5037514;28;20036;-85
2021/06/25 07:18:28;;;;;;;4.60;2.22;;;20.70;69.60;;;;;;5036057;28;20025;-85
2021/06/25 07:20:53;;;;;;;2.63;2.15;;;20.80;69.60;;;;;;5036800;28;20029;-85
2021/06/25 07:23:20;;;;;;;2.13;1.50;;;20.90;69.60;;;;;;5037271;28;20029;-85
2021/06/25 07:25:46;;;;;;;2.72;1.70;;;21.10;69.40;;;;;;5039815;28;20139;-85
2021/06/25 07:28:12;;;;;;;2.78;1.48;;;21.20;69.10;;;;;;5022393;28;20189;-85
2021/06/25 07:30:38;;;;;;;3.55;1.63;;;21.40;69.00;;;;;;5033418;28;20029;-85
2021/06/25 07:33:04;;;;;;;2.35;1.35;;;21.50;68.00;;;;;;5044041;28;20036;-85
2021/06/25 07:35:30;;;;;;;1.80;1.48;;;21.50;68.10;;;;;;5046820;28;20052;-85
2021/06/25 07:38:18;;;;;;;1.23;1.10;;;21.80;67.60;;;;;;5024338;28;20180;-85
2021/06/25 07:40:44;;;;;;;2.20;1.38;;;21.90;66.60;;;;;;5056755;28;20021;-86
2021/06/25 07:43:10;;;;;;;1.52;0.95;;;21.90;66.20;;;;;;5037375;28;20029;-83
2021/06/25 07:45:35;;;;;;;2.60;1.30;;;21.90;65.60;;;;;;5033317;28;20029;-84
2021/06/25 07:48:02;;;;;;;1.33;0.90;;;21.90;65.90;;;;;;5034779;28;21340;-85
2021/06/25 07:50:28;;;;;;;4.35;1.17;;;22.00;65.50;;;;;;5020576;28;20032;-85
2021/06/25 07:52:53;;;;;;;1.60;0.98;;;22.20;65.20;;;;;;5033254;28;20475;-85
2021/06/25 07:55:19;;;;;;;2.75;0.98;;;22.30;64.70;;;;;;5039561;28;21424;-85
2021/06/25 07:57:45;;;;;;;1.38;0.90;;;22.50;64.20;;;;;;5032558;28;20115;-86
2021/06/25 08:00:11;;;;;;;1.65;1.00;;;22.60;63.90;;;;;;5033728;28;20029;-85
2021/06/25 08:02:37;;;;;;;3.75;0.90;;;22.80;63.60;;;;;;5035033;28;20037;-85
2021/06/25 08:05:04;;;;;;;3.22;1.00;;;23.00;62.70;;;;;;5035100;28;20437;-85
2021/06/25 08:07:30;;;;;;;1.50;1.00;;;23.10;62.70;;;;;;5036147;28;20083;-85
2021/06/25 08:09:56;;;;;;;6.85;0.95;;;23.20;62.30;;;;;;5038454;28;20033;-86
2021/06/25 08:12:21;;;;;;;2.05;0.80;;;23.20;61.80;;;;;;5036011;28;20481;-86
2021/06/25 08:14:47;;;;;;;1.33;1.00;;;23.30;61.50;;;;;;5034866;28;20029;-85
2021/06/25 08:17:13;;;;;;;1.98;1.40;;;23.40;61.30;;;;;;5036156;28;20032;-85
2021/06/25 08:19:41;;;;;;;1.80;0.70;;;23.60;60.30;;;;;;5036403;28;20040;-85
2021/06/25 08:22:07;;;;;;;2.22;0.88;;;23.60;59.90;;;;;;5035733;28;20029;-86
2021/06/25 08:24:34;;;;;;;1.80;1.00;;;23.60;59.80;;;;;;5031168;28;20457;-85
2021/06/25 08:27:01;;;;;;;1.55;1.05;;;23.50;59.70;;;;;;5034062;28;20033;-86
2021/06/25 08:29:27;;;;;;;1.42;0.80;;;23.60;59.70;;;;;;5043182;28;20370;-85
2021/06/25 08:31:53;;;;;;;1.65;0.63;;;23.80;59.20;;;;;;5043730;28;20604;-85
2021/06/25 08:34:19;;;;;;;0.95;0.70;;;23.90;58.70;;;;;;5035843;28;20112;-85
2021/06/25 08:36:44;;;;;;;1.05;0.73;;;24.00;58.00;;;;;;5036488;28;20033;-85
2021/06/25 08:39:10;;;;;;;1.38;0.70;;;23.90;57.30;;;;;;5033529;28;20473;-85
2021/06/25 08:41:38;;;;;;;2.92;0.90;;;24.00;57.00;;;;;;5028699;28;20029;-85
2021/06/25 08:44:05;;;;;;;2.13;0.95;;;24.00;57.00;;;;;;5031938;28;20025;-85
2021/06/25 08:46:32;;;;;;;1.15;0.68;;;23.80;56.80;;;;;;5036081;28;20107;-86
2021/06/25 08:49:04;;;;;;;1.27;0.60;;;23.70;56.80;;;;;;5051997;28;20024;-85
2021/06/25 08:51:31;;;;;;;1.55;0.90;;;23.60;57.00;;;;;;5029475;28;20112;-85
2021/06/25 08:53:57;;;;;;;3.90;0.88;;;23.70;57.20;;;;;;5033156;28;20028;-85
2021/06/25 08:56:23;;;;;;;1.90;0.75;;;23.80;57.80;;;;;;5050533;28;20021;-85
2021/06/25 08:58:49;;;;;;;5.28;1.50;;;23.80;57.00;;;;;;5035551;28;20032;-85
2021/06/25 09:01:17;;;;;;;1.60;1.50;;;23.80;56.90;;;;;;5031350;28;20060;-86
2021/06/25 09:03:51;;;;;;;3.15;2.20;;;23.80;57.20;;;;;;5035185;28;20021;-85
2021/06/25 09:06:16;;;;;;;2.78;1.77;;;23.80;57.00;;;;;;5027326;28;20390;-86
2021/06/25 09:08:42;;;;;;;2.00;1.85;;;23.70;57.20;;;;;;5050414;28;20029;-86
2021/06/25 09:11:20;;;;;;;4.78;2.05;;;23.70;57.20;;;;;;5042550;28;20108;-86
2021/06/25 09:13:46;;;;;;;4.18;3.13;;;23.70;57.30;;;;;;5027971;28;20393;-85
2021/06/25 09:16:19;;;;;;;6.85;3.40;;;23.50;57.10;;;;;;5035320;28;20464;-86
2021/06/25 09:19:02;;;;;;;3.97;2.53;;;23.50;57.50;;;;;;5029756;28;20040;-85
2021/06/25 09:21:29;;;;;;;;;;;23.50;57.10;;;;;;5047130;28;20516;-85
2021/06/25 09:23:55;;;;;;;3.00;2.13;;;23.60;57.30;;;;;;5035377;28;19911;-86
2021/06/25 09:26:28;;;;;;;4.03;3.30;;;23.50;57.10;;;;;;5029117;28;20152;-85
2021/06/25 09:29:15;;;;;;;3.80;3.08;;;23.50;56.40;;;;;;5034523;28;20025;-86
2021/06/25 09:31:42;;;;;;;5.25;2.40;;;23.50;56.80;;;;;;5048111;28;20381;-86
2021/06/25 09:34:09;;;;;;;5.50;2.42;;;23.70;56.90;;;;;;5030915;28;20489;-85
2021/06/25 09:36:39;;;;;;;4.57;2.47;;;23.80;56.40;;;;;;5033334;28;20421;-85
2021/06/25 09:39:11;;;;;;;3.88;2.13;;;23.90;56.40;;;;;;5059910;28;20109;-85
2021/06/25 09:41:42;;;;;;;11.15;1.98;;;24.00;56.30;;;;;;5050546;28;20041;-87
2021/06/25 09:44:16;;;;;;;4.68;2.75;;;24.00;56.00;;;;;;5035007;28;20411;-86
2021/06/25 09:46:44;;;;;;;2.35;1.85;;;24.00;55.40;;;;;;5045884;28;20116;-84
2021/06/25 09:49:11;;;;;;;3.53;2.17;;;24.00;55.40;;;;;;5030155;28;20029;-84
2021/06/25 09:51:40;;;;;;;5.30;1.73;;;24.10;54.90;;;;;;5032709;28;20024;-84
2021/06/25 09:54:07;;;;;;;3.35;1.30;;;24.00;54.90;;;;;;5031408;28;20429;-84
2021/06/25 09:56:39;;;;;;;1.35;1.20;;;24.10;54.80;;;;;;5034159;28;20024;-84
2021/06/25 10:02:24;;;;;;;3.13;1.50;;;24.40;54.10;;;;;;5048302;28;20294;-84
2021/06/25 10:04:53;;;;;;;2.33;0.80;;;24.60;53.70;;;;;;5020361;28;20033;-84
2021/06/25 10:07:30;;;;;;;1.95;1.10;;;24.70;53.50;;;;;;5034715;28;20386;-84
2021/06/25 10:10:09;;;;;;;2.35;1.70;;;24.80;53.10;;;;;;5030114;28;20037;-84
2021/06/25 10:12:43;;;;;;;7.78;1.98;;;24.80;52.60;;;;;;5014795;28;20029;-84
2021/06/25 10:15:10;;;;;;;3.88;1.50;;;24.90;53.00;;;;;;5032608;28;20076;-84
2021/06/25 10:17:37;;;;;;;3.60;1.48;;;24.90;53.10;;;;;;5034395;28;20441;-84
2021/06/25 10:20:08;;;;;;;2.10;1.15;;;24.80;52.70;;;;;;5033988;28;20059;-84
2021/06/25 10:22:36;;;;;;;2.33;1.40;;;24.80;52.50;;;;;;5034167;28;20045;-85
2021/06/25 10:25:04;;;;;;;3.92;1.05;;;24.70;52.80;;;;;;5034179;28;20458;-84
2021/06/25 10:27:30;;;;;;;4.68;1.27;;;24.90;53.10;;;;;;5052117;28;20045;-84
2021/06/25 10:29:57;;;;;;;3.65;1.42;;;24.80;53.00;;;;;;5035088;28;20029;-84
2021/06/25 10:32:24;;;;;;;1.83;1.00;;;24.90;53.00;;;;;;5041159;28;20401;-84
2021/06/25 10:34:49;;;;;;;2.70;1.10;;;24.90;53.10;;;;;;5034190;28;20029;-84
2021/06/25 10:37:28;;;;;;;2.80;1.63;;;25.00;52.90;;;;;;5031269;28;20025;-84
2021/06/25 10:39:54;;;;;;;2.47;0.98;;;25.00;52.40;;;;;;5049311;28;20555;-84
2021/06/25 10:42:20;;;;;;;1.30;0.90;;;24.90;52.60;;;;;;5034860;28;20017;-84
2021/06/25 10:44:52;;;;;;;2.40;0.90;;;24.80;52.70;;;;;;5033969;28;20052;-85
2021/06/25 10:47:33;;;;;;;3.28;0.93;;;24.80;52.50;;;;;;5048231;28;20485;-85
2021/06/25 10:49:59;;;;;;;1.83;0.93;;;24.80;52.10;;;;;;5033237;28;20033;-84
2021/06/25 10:52:29;;;;;;;5.65;1.20;;;24.80;52.10;;;;;;5037818;28;20730;-84
2021/06/25 10:55:02;;;;;;;1.88;1.00;;;24.70;52.20;;;;;;5031988;28;20045;-84
2021/06/25 10:57:30;;;;;;;1.38;0.75;;;24.60;51.70;;;;;;5027432;28;20029;-84
2021/06/25 10:59:56;;;;;;;0.95;0.70;;;24.60;51.80;;;;;;5032246;28;20127;-84
2021/06/25 11:02:42;;;;;;;1.67;1.02;;;24.60;51.80;;;;;;5032940;28;20025;-84
2021/06/25 11:05:29;;;;;;;1.13;0.80;;;24.60;51.70;;;;;;5052352;28;20048;-84
2021/06/25 11:08:02;;;;;;;0.40;0.40;;;24.70;51.80;;;;;;5033672;28;20027;-84
2021/06/25 11:10:32;;;;;;;2.45;0.82;;;24.60;52.50;;;;;;5033184;28;20064;-84
2021/06/25 11:13:14;;;;;;;2.47;1.13;;;24.60;51.70;;;;;;5046224;28;20025;-84
2021/06/25 11:15:41;;;;;;;2.13;0.80;;;24.70;51.70;;;;;;5034787;28;20481;-84
2021/06/25 11:18:17;;;;;;;2.63;0.80;;;24.70;51.90;;;;;;5032963;28;20036;-84
2021/06/25 11:20:57;;;;;;;3.80;0.82;;;24.70;51.40;;;;;;5035127;28;20024;-84
2021/06/25 11:23:26;;;;;;;1.30;0.90;;;24.70;51.70;;;;;;5033723;28;20025;-84
2021/06/25 11:25:55;;;;;;;3.30;0.80;;;24.70;51.60;;;;;;5033782;28;20021;-84
2021/06/25 11:28:40;;;;;;;1.23;0.50;;;24.90;51.50;;;;;;5033181;28;20033;-84
2021/06/25 11:31:13;;;;;;;0.95;0.38;;;25.20;50.90;;;;;;5033734;28;20029;-84
2021/06/25 11:33:56;;;;;;;1.23;0.63;;;25.10;50.40;;;;;;5033569;28;20474;-84
2021/06/25 11:36:21;;;;;;;2.67;0.40;;;25.00;50.30;;;;;;5032328;28;20033;-84
2021/06/25 11:38:56;;;;;;;2.10;0.50;;;25.20;50.60;;;;;;5051130;28;20036;-83
2021/06/25 11:41:23;;;;;;;1.85;0.60;;;25.40;49.90;;;;;;5017604;28;20021;-84
2021/06/25 11:43:50;;;;;;;1.58;0.50;;;25.40;49.30;;;;;;5025379;28;20052;-84
2021/06/25 11:46:17;;;;;;;1.08;0.40;;;25.50;48.70;;;;;;5036995;28;20036;-83
2021/06/25 11:48:47;;;;;;;0.38;0.38;;;25.50;48.80;;;;;;5037956;28;20051;-84
2021/06/25 11:51:16;;;;;;;2.05;0.50;;;25.60;49.10;;;;;;5038293;28;20037;-84
2021/06/25 11:53:46;;;;;;;1.13;0.43;;;25.50;48.90;;;;;;5038037;28;20029;-86
2021/06/25 11:56:23;;;;;;;0.55;0.45;;;25.50;48.30;;;;;;5017484;28;20406;-84
2021/06/25 11:59:04;;;;;;;2.13;0.50;;;25.30;48.40;;;;;;5017023;28;20041;-84
2021/06/25 12:01:31;;;;;;;0.90;0.47;;;25.30;48.30;;;;;;5032500;28;20410;-83
2021/06/25 12:03:58;;;;;;;1.92;0.50;;;25.30;48.50;;;;;;5018809;28;20029;-84
2021/06/25 12:06:25;;;;;;;1.65;0.60;;;25.50;48.60;;;;;;5016953;28;20025;-84
2021/06/25 12:09:00;;;;;;;1.30;0.50;;;25.50;48.20;;;;;;5016726;28;20022;-84
2021/06/25 12:11:43;;;;;;;1.13;0.50;;;25.70;48.20;;;;;;5016636;28;20021;-84
2021/06/25 12:14:11;;;;;;;;;;;25.80;48.00;;;;;;5035088;28;20034;-84
2021/06/25 12:16:42;;;;;;;1.45;0.68;;;25.90;47.90;;;;;;5016046;28;19905;-84
2021/06/25 12:19:10;;;;;;;0.30;0.30;;;25.90;47.80;;;;;;5016323;28;20036;-84
2021/06/25 12:21:36;;;;;;;1.63;0.30;;;25.90;47.50;;;;;;5016694;28;20400;-85
2021/06/25 12:24:02;;;;;;;3.75;0.50;;;25.90;47.70;;;;;;5017907;28;20021;-84
2021/06/25 12:26:28;;;;;;;1.00;0.47;;;25.80;46.80;;;;;;5016520;28;20057;-84
2021/06/25 12:28:57;;;;;;;1.33;0.63;;;25.90;47.30;;;;;;5016369;28;20037;-84
2021/06/25 12:31:28;;;;;;;0.70;0.60;;;26.00;46.90;;;;;;4999043;28;20021;-85
2021/06/25 12:34:18;;;;;;;1.05;0.50;;;26.20;46.40;;;;;;5016027;28;20087;-84
2021/06/25 12:36:58;;;;;;;0.75;0.47;;;26.20;46.30;;;;;;5012776;28;20025;-84
2021/06/25 12:39:28;;;;;;;1.80;0.70;;;26.20;46.40;;;;;;5023647;28;20021;-84
2021/06/25 12:41:54;;;;;;;2.78;0.60;;;26.10;46.10;;;;;;5026274;28;20033;-84
2021/06/25 12:44:24;;;;;;;1.70;0.40;;;26.00;46.40;;;;;;5016105;28;20537;-84
2021/06/25 12:47:03;;;;;;;0.60;0.40;;;26.00;46.40;;;;;;5016113;28;20643;-84
2021/06/25 12:49:32;;;;;;;2.08;0.50;;;26.10;46.50;;;;;;5015941;28;20434;-84
2021/06/25 12:51:57;;;;;;;0.77;0.50;;;26.10;46.10;;;;;;5031977;28;20029;-84
2021/06/25 12:54:30;;;;;;;0.40;0.40;;;26.10;45.50;;;;;;5035346;28;20041;-85
2021/06/25 12:56:57;;;;;;;0.82;0.60;;;26.10;45.20;;;;;;5019463;28;20032;-84
2021/06/25 12:59:27;;;;;;;2.00;0.40;;;26.20;44.80;;;;;;5015886;28;20013;-84
2021/06/25 13:02:00;;;;;;;6.28;0.52;;;26.40;45.00;;;;;;5015201;28;20027;-84
2021/06/25 13:04:31;;;;;;;0.57;0.40;;;26.40;45.00;;;;;;5017359;28;20029;-84